Time;durP1;ratioP1;P1;durP2;ratioP2;P2;SDS_P1;SDS_P2;PMS_P1;PMS_P2;Temp;Humidity;BMP_temperature;BMP_pressure;BME280_temperature;BME280_humidity;BME280_pressure;Samples;Min_cycle;Max_cycle;Signal;HPM_P1;HPM_P2
2022/10/25 00:01:47;;;;;;;;;1.33;0.00;;;;;16.80;100.00;101244.03;4995855;28;64236;-75
2022/10/25 00:04:13;;;;;;;;;2.00;0.00;;;;;16.80;100.00;101239.59;4995935;28;45348;-76
2022/10/25 00:06:38;;;;;;;;;0.00;0.00;;;;;16.79;100.00;101242.28;4997290;28;45478;-76
2022/10/25 00:09:04;;;;;;;;;0.00;0.00;;;;;16.79;100.00;101236.94;4995826;28;45306;-76
2022/10/25 00:11:30;;;;;;;;;0.00;0.00;;;;;16.76;100.00;101249.38;4997240;28;45341;-76
2022/10/25 00:13:57;;;;;;;;;2.33;0.33;;;;;16.77;100.00;101243.16;4997159;28;45484;-76
2022/10/25 00:16:25;;;;;;;;;2.00;0.00;;;;;16.78;100.00;101244.06;4997508;28;45800;-77
2022/10/25 00:18:51;;;;;;;;;2.00;0.00;;;;;16.74;100.00;101243.19;4998123;28;45419;-77
2022/10/25 00:21:17;;;;;;;;;1.33;0.33;;;;;16.73;100.00;101244.09;4996540;28;45487;-77
2022/10/25 00:23:42;;;;;;;;;0.00;0.00;;;;;16.77;100.00;101255.59;4997368;28;45513;-76
2022/10/25 00:26:09;;;;;;;;;0.00;0.00;;;;;16.73;100.00;101253.88;4996049;28;51645;-77
2022/10/25 00:28:34;;;;;;;;;0.00;0.00;;;;;16.76;100.00;101257.38;5011825;28;45505;-77
2022/10/25 00:31:05;;;;;;;;;2.00;0.00;;;;;16.75;100.00;101252.97;4995941;28;45289;-77
2022/10/25 00:33:31;;;;;;;;;0.00;0.00;;;;;16.76;100.00;101254.72;4995810;28;45369;-76
2022/10/25 00:36:04;;;;;;;;;3.33;0.00;;;;;16.77;100.00;101255.59;4995503;28;45461;-77
2022/10/25 00:38:29;;;;;;;;;1.00;1.00;;;;;16.80;100.00;101262.72;4995061;28;45773;-77
2022/10/25 00:40:54;;;;;;;;;4.00;2.00;;;;;16.79;100.00;101255.63;4994603;28;45648;-76
2022/10/25 00:43:41;;;;;;;;;0.67;0.00;;;;;16.75;100.00;101260.06;4996237;28;58794;-76
2022/10/25 00:46:13;;;;;;;;;2.00;1.00;;;;;16.73;100.00;101252.09;4995704;28;47705;-77
2022/10/25 00:48:39;;;;;;;;;2.67;1.00;;;;;16.69;100.00;101246.75;5010847;28;45850;-76
2022/10/25 00:51:04;;;;;;;;;2.00;0.33;;;;;16.71;100.00;101261.88;4995021;28;45456;-76
2022/10/25 00:53:34;;;;;;;;;0.67;0.67;;;;;16.69;100.00;101255.66;4995688;28;62338;-76
2022/10/25 00:56:11;;;;;;;;;2.00;1.00;;;;;16.71;100.00;101261.00;5000909;28;47760;-77
2022/10/25 00:58:38;;;;;;;;;0.00;0.00;;;;;16.72;100.00;101257.41;5016732;28;45490;-77
2022/10/25 01:01:05;;;;;;;;;6.00;1.00;;;;;16.69;100.00;101249.44;5014567;28;45471;-75
2022/10/25 01:03:33;;;;;;;;;2.67;1.00;;;;;16.70;100.00;101262.75;5016110;28;45613;-76
2022/10/25 01:06:01;;;;;;;;;0.33;0.00;;;;;16.72;100.00;101269.00;4998491;28;45468;-77
2022/10/25 01:08:26;;;;;;;;;0.00;0.00;;;;;16.71;100.00;101261.00;4998152;28;45425;-76
2022/10/25 01:10:52;;;;;;;;;1.00;1.00;;;;;16.70;100.00;101268.06;5016148;28;45476;-77
2022/10/25 01:13:17;;;;;;;;;5.67;0.67;;;;;16.67;100.00;101257.44;4998070;28;45479;-76
2022/10/25 01:15:56;;;;;;;;;2.33;1.00;;;;;16.68;100.00;101261.88;5014818;28;46825;-76
2022/10/25 01:18:44;;;;;;;;;2.67;1.00;;;;;16.66;100.00;101253.00;5013909;28;45554;-77
2022/10/25 01:21:21;;;;;;;;;0.00;0.00;;;;;16.65;100.00;101255.66;5014390;28;45333;-76
2022/10/25 01:24:10;;;;;;;;;3.33;1.00;;;;;16.65;100.00;101267.22;5016060;28;45355;-77
2022/10/25 01:26:51;;;;;;;;;4.33;1.00;;;;;16.63;100.00;101271.69;5015441;28;45952;-76
2022/10/25 01:29:52;;;;;;;;;3.33;0.67;;;;;16.63;100.00;101271.69;5015601;28;45504;-77
2022/10/25 01:32:41;;;;;;;;;2.00;1.00;;;;;16.63;100.00;101262.81;4992828;28;45372;-76
2022/10/25 01:35:27;;;;;;;;;0.00;0.00;;;;;16.63;100.00;101268.13;5014669;28;45388;-76
2022/10/25 01:37:56;;;;;;;;;3.67;1.00;;;;;16.61;100.00;101265.47;5014128;28;46173;-77
2022/10/25 01:40:28;;;;;;;;;1.00;0.00;;;;;16.62;100.00;101261.00;5015680;28;45357;-76
2022/10/25 01:43:12;;;;;;;;;4.00;1.00;;;;;16.61;100.00;101264.59;4997479;28;45440;-76
2022/10/25 01:46:00;;;;;;;;;1.00;1.00;;;;;16.61;100.00;101262.78;4997925;28;45421;-76
2022/10/25 01:48:33;;;;;;;;;1.00;1.00;;;;;16.60;100.00;101254.81;4997841;28;46746;-76
2022/10/25 01:51:14;;;;;;;;;1.67;0.00;;;;;16.59;100.00;101253.94;4997277;28;45535;-76
2022/10/25 01:53:47;;;;;;;;;0.33;0.00;;;;;16.61;100.00;101259.25;4997804;28;45290;-76
2022/10/25 01:56:22;;;;;;;;;2.33;1.00;;;;;16.57;100.00;101258.41;5015080;28;45495;-77
2022/10/25 01:58:59;;;;;;;;;0.67;0.00;;;;;16.57;100.00;101263.75;4981625;28;45967;-76
2022/10/25 02:02:00;;;;;;;;;2.00;0.00;;;;;16.54;100.00;101261.06;4999262;28;45236;-76
2022/10/25 02:05:00;;;;;;;;;0.67;0.33;;;;;16.57;100.00;101265.53;4997481;28;45518;-77
2022/10/25 02:07:27;;;;;;;;;1.33;0.00;;;;;16.53;100.00;101261.09;4981107;28;45393;-76
2022/10/25 02:10:03;;;;;;;;;2.33;0.00;;;;;16.52;100.00;101264.66;4991159;28;45658;-75
2022/10/25 02:12:37;;;;;;;;;4.00;2.00;;;;;16.48;100.00;101269.13;5016436;28;45408;-77
2022/10/25 02:15:18;;;;;;;;;0.67;0.00;;;;;16.46;100.00;101262.94;4997888;28;45388;-77
2022/10/25 02:17:49;;;;;;;;;2.67;1.00;;;;;16.43;100.00;101269.16;4991282;28;45502;-76
2022/10/25 02:20:17;;;;;;;;;0.67;0.67;;;;;16.40;100.00;101268.25;4997450;28;46486;-76
2022/10/25 02:22:42;;;;;;;;;5.00;0.67;;;;;16.36;100.00;101278.09;5014448;28;45560;-76
2022/10/25 02:25:08;;;;;;;;;0.67;0.00;;;;;16.30;100.00;101275.47;5000030;28;55593;-77
2022/10/25 02:27:35;;;;;;;;;0.33;0.33;;;;;16.31;100.00;101276.34;4975419;28;45624;-77
2022/10/25 02:30:01;;;;;;;;;1.00;0.00;;;;;16.30;100.00;101277.22;4996353;28;46522;-76
2022/10/25 02:32:26;;;;;;;;;3.00;0.00;;;;;16.32;100.00;101284.31;4997759;28;45543;-76
2022/10/25 02:34:52;;;;;;;;;0.00;0.00;;;;;16.32;100.00;101280.78;4991299;28;62206;-76
2022/10/25 02:37:17;;;;;;;;;0.67;0.67;;;;;16.32;100.00;101276.31;4991322;28;45449;-77
2022/10/25 02:39:44;;;;;;;;;2.00;1.00;;;;;16.38;100.00;101283.41;5017248;28;65721;-76
2022/10/25 02:42:09;;;;;;;;;2.00;0.00;;;;;16.42;100.00;101285.16;4998212;28;45551;-77
2022/10/25 02:44:35;;;;;;;;;1.00;0.00;;;;;16.44;100.00;101270.03;5000271;28;45332;-77
2022/10/25 02:47:00;;;;;;;;;2.00;1.00;;;;;16.48;100.00;101279.78;5017325;28;62641;-76
2022/10/25 02:49:25;;;;;;;;;0.00;0.00;;;;;16.48;100.00;101278.00;5017229;28;62140;-76
2022/10/25 02:51:51;;;;;;;;;1.67;0.00;;;;;16.53;100.00;101272.66;5000291;28;45395;-77
2022/10/25 02:54:16;;;;;;;;;5.33;0.33;;;;;16.55;100.00;101265.50;5011173;28;45296;-76
2022/10/25 02:56:42;;;;;;;;;0.67;0.67;;;;;16.64;100.00;101268.13;5002814;28;45606;-78
2022/10/25 02:59:10;;;;;;;;;2.00;0.00;;;;;16.68;100.00;101264.53;4997800;28;45816;-76
2022/10/25 03:01:35;;;;;;;;;0.00;0.00;;;;;16.75;100.00;101273.41;4998054;28;45333;-78
2022/10/25 03:04:01;;;;;;;;;1.33;0.67;;;;;16.77;100.00;101264.50;4997410;28;53599;-77
2022/10/25 03:06:26;;;;;;;;;4.33;0.00;;;;;16.83;100.00;101274.25;4996998;28;57147;-77
2022/10/25 03:08:51;;;;;;;;;3.67;0.00;;;;;16.85;100.00;101268.91;4997807;28;45854;-77
2022/10/25 03:11:17;;;;;;;;;2.00;0.00;;;;;16.88;100.00;101274.19;4996763;28;56839;-76
2022/10/25 03:13:43;;;;;;;;;0.00;0.00;;;;;16.92;100.00;101284.81;4980877;28;45631;-76
2022/10/25 03:16:08;;;;;;;;;2.33;0.00;;;;;16.94;100.00;101279.50;4980578;28;45650;-77
2022/10/25 03:18:33;;;;;;;;;0.00;0.00;;;;;16.94;100.00;101277.72;4998019;28;46314;-76
2022/10/25 03:21:00;;;;;;;;;1.00;0.00;;;;;16.96;100.00;101275.03;4995890;28;45420;-76
2022/10/25 03:23:26;;;;;;;;;1.00;1.00;;;;;17.00;100.00;101279.44;4998141;28;46025;-78
2022/10/25 03:25:53;;;;;;;;;0.33;0.00;;;;;16.98;100.00;101273.22;4996446;28;45662;-77
2022/10/25 03:28:18;;;;;;;;;0.00;0.00;;;;;17.04;100.00;101283.84;4997148;28;45653;-77
2022/10/25 03:30:43;;;;;;;;;1.67;0.33;;;;;17.06;100.00;101284.72;4963214;28;64872;-77
2022/10/25 03:33:09;;;;;;;;;0.00;0.00;;;;;17.07;100.00;101277.59;4979423;28;58388;-77
2022/10/25 03:35:34;;;;;;;;;3.00;0.00;;;;;17.07;100.00;101278.50;4979773;28;45449;-76
2022/10/25 03:38:00;;;;;;;;;1.00;1.00;;;;;17.03;100.00;101282.06;4997250;28;46754;-78
2022/10/25 03:40:25;;;;;;;;;1.33;0.67;;;;;17.07;100.00;101296.28;4996879;28;56555;-76
2022/10/25 03:42:50;;;;;;;;;1.67;1.00;;;;;17.08;100.00;101292.72;4979984;28;45583;-76
2022/10/25 03:45:16;;;;;;;;;1.33;0.00;;;;;17.08;100.00;101298.94;4979668;28;45777;-76
2022/10/25 03:47:42;;;;;;;;;1.33;0.00;;;;;17.12;100.00;101295.34;4997051;28;46683;-76
2022/10/25 03:50:08;;;;;;;;;0.67;0.67;;;;;17.16;100.00;101306.88;4996488;28;61964;-76
2022/10/25 03:52:33;;;;;;;;;4.00;0.33;;;;;17.15;100.00;101302.44;4979393;28;45311;-77
2022/10/25 03:54:58;;;;;;;;;1.33;0.00;;;;;17.17;100.00;101303.31;4997393;28;45196;-76
2022/10/25 03:57:24;;;;;;;;;2.00;1.00;;;;;17.22;100.00;101312.16;5007854;28;62618;-77
2022/10/25 03:59:49;;;;;;;;;2.00;1.00;;;;;17.22;100.00;101305.03;5016821;28;45433;-77
2022/10/25 04:02:15;;;;;;;;;2.00;1.00;;;;;17.23;100.00;101303.25;5016449;28;57481;-76
2022/10/25 04:04:40;;;;;;;;;0.33;0.33;;;;;17.26;100.00;101311.25;5014882;28;55511;-77
2022/10/25 04:07:05;;;;;;;;;1.33;0.00;;;;;17.25;100.00;101301.44;5015733;28;62551;-76
2022/10/25 04:09:31;;;;;;;;;1.00;1.00;;;;;17.27;100.00;101300.56;5016816;28;45483;-76
2022/10/25 04:11:56;;;;;;;;;1.00;1.00;;;;;17.28;100.00;101301.44;5016873;28;45675;-77
2022/10/25 04:14:22;;;;;;;;;0.00;0.00;;;;;17.29;100.00;101304.09;5015723;28;45440;-77
2022/10/25 04:16:47;;;;;;;;;4.67;1.00;;;;;17.22;100.00;101294.38;5014882;28;46989;-76
2022/10/25 04:19:12;;;;;;;;;1.00;0.67;;;;;17.24;100.00;101297.91;5015923;28;45610;-76
2022/10/25 04:21:38;;;;;;;;;0.67;0.00;;;;;17.27;100.00;101300.56;5016026;28;59532;-77
2022/10/25 04:24:03;;;;;;;;;1.67;1.00;;;;;17.29;100.00;101308.53;5016942;28;45599;-76
2022/10/25 04:26:28;;;;;;;;;0.00;0.00;;;;;17.31;100.00;101304.09;5016656;28;45547;-76
2022/10/25 04:28:55;;;;;;;;;2.00;1.00;;;;;17.31;100.00;101305.84;5015422;28;46017;-77
2022/10/25 04:31:21;;;;;;;;;0.00;0.00;;;;;17.32;100.00;101310.31;5016756;28;45425;-77
2022/10/25 04:33:48;;;;;;;;;1.00;1.00;;;;;17.35;100.00;101304.94;5015295;28;45578;-76
2022/10/25 04:36:13;;;;;;;;;1.33;1.33;;;;;17.35;100.00;101308.47;5014993;28;45953;-76
2022/10/25 04:38:38;;;;;;;;;3.67;1.00;;;;;17.36;100.00;101306.69;5015163;28;65632;-76
2022/10/25 04:41:04;;;;;;;;;0.00;0.00;;;;;17.36;100.00;101306.69;5015901;28;58128;-77
2022/10/25 04:43:29;;;;;;;;;0.33;0.33;;;;;17.35;100.00;101303.13;5016492;28;45479;-76
2022/10/25 04:45:59;;;;;;;;;0.00;0.00;;;;;17.34;100.00;101306.72;5014813;28;63818;-77
2022/10/25 04:48:24;;;;;;;;;1.00;0.67;;;;;17.35;100.00;101308.47;5016406;28;45485;-76
2022/10/25 04:50:50;;;;;;;;;0.00;0.00;;;;;17.33;100.00;101304.94;5016025;28;45245;-76
2022/10/25 04:53:15;;;;;;;;;2.00;0.33;;;;;17.29;100.00;101304.09;5014097;28;54396;-76
2022/10/25 04:55:40;;;;;;;;;0.67;0.67;;;;;17.27;100.00;101305.91;5151388;22;59118;-76
2022/10/25 04:58:05;;;;;;;;;2.00;1.00;;;;;17.24;100.00;101305.03;5038775;28;65195;-76
2022/10/25 05:00:31;;;;;;;;;0.00;0.00;;;;;17.22;100.00;101306.84;5068349;28;56467;-76
2022/10/25 05:02:56;;;;;;;;;1.33;1.00;;;;;17.19;100.00;101315.72;5033902;28;57825;-76
2022/10/25 05:05:23;;;;;;;;;3.00;1.00;;;;;17.16;100.00;101315.78;5034797;28;46206;-76
2022/10/25 05:07:48;;;;;;;;;1.00;1.00;;;;;17.09;100.00;101310.47;5034520;28;45321;-76
2022/10/25 05:10:14;;;;;;;;;5.00;2.00;;;;;17.08;100.00;101324.72;5034827;28;63144;-76
2022/10/25 05:12:39;;;;;;;;;2.67;1.00;;;;;16.98;100.00;101307.91;5034616;28;45402;-76
2022/10/25 05:15:06;;;;;;;;;2.67;1.33;;;;;17.03;100.00;101319.44;5032881;28;66321;-76
2022/10/25 05:17:32;;;;;;;;;2.00;2.00;;;;;17.00;100.00;101316.81;5034214;28;45407;-76
2022/10/25 05:19:57;;;;;;;;;4.33;2.00;;;;;16.96;100.00;101318.59;5034516;28;45568;-76
2022/10/25 05:22:23;;;;;;;;;0.67;0.67;;;;;16.98;100.00;101316.78;5034883;28;45395;-75
2022/10/25 05:24:48;;;;;;;;;1.00;1.00;;;;;16.95;100.00;101305.28;5035505;28;54055;-76
2022/10/25 05:27:13;;;;;;;;;3.00;2.00;;;;;16.94;100.00;101317.72;5034749;28;48583;-76
2022/10/25 05:29:39;;;;;;;;;2.67;2.67;;;;;16.94;100.00;101319.53;5034074;28;56301;-76
2022/10/25 05:32:04;;;;;;;;;3.67;2.00;;;;;16.89;100.00;101324.88;5018059;28;45278;-75
2022/10/25 05:34:30;;;;;;;;;3.33;1.00;;;;;16.86;100.00;101324.00;5035498;28;49009;-75
2022/10/25 05:36:56;;;;;;;;;2.00;1.00;;;;;16.83;100.00;101330.25;5036606;28;64711;-76
2022/10/25 05:39:21;;;;;;;;;2.00;2.00;;;;;16.79;100.00;101330.28;5039547;28;45401;-76
2022/10/25 05:41:48;;;;;;;;;1.00;1.00;;;;;16.77;100.00;101335.59;5040135;28;45480;-76
2022/10/25 05:44:15;;;;;;;;;2.67;2.00;;;;;16.73;100.00;101326.78;5039976;28;46600;-76
2022/10/25 05:46:41;;;;;;;;;2.00;2.00;;;;;16.74;100.00;101330.31;5039036;28;45337;-76
2022/10/25 05:49:06;;;;;;;;;3.00;2.00;;;;;16.72;100.00;101322.34;5039498;28;45405;-76
2022/10/25 05:51:32;;;;;;;;;3.67;0.00;;;;;16.71;100.00;101325.00;5038379;28;45557;-76
2022/10/25 05:53:59;;;;;;;;;4.00;2.33;;;;;16.73;100.00;101323.22;5037998;28;45857;-76
2022/10/25 05:56:27;;;;;;;;;4.67;2.00;;;;;16.71;100.00;101323.19;5022922;28;45300;-75
2022/10/25 05:58:55;;;;;;;;;6.00;2.00;;;;;16.74;100.00;101323.19;5017136;28;45397;-76
2022/10/25 06:01:22;;;;;;;;;3.33;2.67;;;;;16.79;100.00;101332.97;5018530;28;46635;-76
2022/10/25 06:03:51;;;;;;;;;4.00;4.00;;;;;16.83;100.00;101337.34;5017466;28;47799;-76
2022/10/25 06:06:17;;;;;;;;;6.00;4.00;;;;;16.85;100.00;101338.25;5012405;28;45436;-76
2022/10/25 06:08:42;;;;;;;;;2.33;2.33;;;;;16.86;100.00;101332.00;5014116;28;45480;-76
2022/10/25 06:11:11;;;;;;;;;2.00;2.00;;;;;16.86;100.00;101326.69;5018174;28;45603;-76
2022/10/25 06:13:37;;;;;;;;;2.00;2.00;;;;;16.86;100.00;101324.00;5015430;28;45546;-75
2022/10/25 06:16:07;;;;;;;;;1.00;1.00;;;;;16.88;100.00;101335.53;5018127;28;66734;-78
2022/10/25 06:18:33;;;;;;;;;5.00;2.00;;;;;16.91;100.00;101336.41;5018544;28;45538;-79
2022/10/25 06:21:10;;;;;;;;;7.33;3.67;;;;;16.92;100.00;101331.97;5019286;28;45479;-76
2022/10/25 06:23:36;;;;;;;;;8.67;5.33;;;;;16.92;100.00;101337.31;5017919;28;47574;-76
2022/10/25 06:26:06;;;;;;;;;3.33;3.33;;;;;16.91;100.00;101333.75;5016734;28;45454;-76
2022/10/25 06:28:32;;;;;;;;;4.00;3.67;;;;;16.94;100.00;101338.19;5017369;28;45509;-78
2022/10/25 06:31:10;;;;;;;;;3.33;3.00;;;;;16.97;100.00;101344.38;5016945;28;45587;-77
2022/10/25 06:33:35;;;;;;;;;7.67;2.33;;;;;16.98;100.00;101346.13;5016992;28;46076;-76
2022/10/25 06:36:02;;;;;;;;;3.00;2.00;;;;;17.02;100.00;101352.34;5018453;28;45557;-78
2022/10/25 06:38:28;;;;;;;;;5.33;0.67;;;;;17.03;100.00;101351.44;5015955;28;45537;-78
2022/10/25 06:41:01;;;;;;;;;5.00;2.00;;;;;17.04;100.00;101358.53;5015478;28;45583;-79
2022/10/25 06:43:27;;;;;;;;;5.00;2.00;;;;;17.07;100.00;101353.19;5016501;28;46701;-78
2022/10/25 06:45:53;;;;;;;;;2.33;1.67;;;;;17.08;100.00;101354.09;5014848;28;45563;-78
2022/10/25 06:48:19;;;;;;;;;1.00;1.00;;;;;17.09;100.00;101355.84;4997535;28;45349;-79
2022/10/25 06:50:44;;;;;;;;;6.33;3.00;;;;;17.13;100.00;101358.47;5033910;28;45312;-79
2022/10/25 06:53:09;;;;;;;;;3.00;1.67;;;;;17.15;100.00;101351.38;4995410;28;64791;-78
2022/10/25 06:55:35;;;;;;;;;5.00;2.00;;;;;17.17;100.00;101357.56;5008931;28;46111;-78
2022/10/25 06:58:00;;;;;;;;;2.00;1.00;;;;;17.19;100.00;101365.56;5015388;28;45484;-79
2022/10/25 07:00:25;;;;;;;;;3.33;2.00;;;;;17.18;100.00;101367.34;5011153;28;53372;-78
2022/10/25 07:02:58;;;;;;;;;1.00;1.00;;;;;17.14;100.00;101360.25;5010536;28;54490;-80
2022/10/25 07:05:24;;;;;;;;;4.00;3.00;;;;;17.15;100.00;101371.81;5013771;28;45535;-78
2022/10/25 07:07:50;;;;;;;;;3.00;2.00;;;;;17.12;100.00;101367.41;5009547;28;45437;-77
2022/10/25 07:10:15;;;;;;;;;1.67;1.67;;;;;17.11;100.00;101365.63;5014204;28;45357;-77
2022/10/25 07:12:41;;;;;;;;;2.00;2.00;;;;;17.13;100.00;101366.50;5015600;28;45661;-77
2022/10/25 07:15:07;;;;;;;;;3.00;2.00;;;;;17.15;100.00;101367.38;5011856;28;48510;-76
2022/10/25 07:17:32;;;;;;;;;5.00;3.00;;;;;17.14;100.00;101370.91;5015809;28;45842;-76
2022/10/25 07:19:57;;;;;;;;;1.00;1.00;;;;;17.17;100.00;101370.03;5015888;28;52325;-76
2022/10/25 07:22:23;;;;;;;;;1.00;1.00;;;;;17.17;100.00;101381.59;5014411;28;57876;-76
2022/10/25 07:24:49;;;;;;;;;2.00;2.00;;;;;17.17;100.00;101378.91;5013093;28;45513;-76
2022/10/25 07:27:14;;;;;;;;;3.33;1.33;;;;;17.16;100.00;101382.50;5014905;28;45674;-77
2022/10/25 07:29:40;;;;;;;;;3.67;2.00;;;;;17.16;100.00;101376.28;5014723;28;45313;-77
2022/10/25 07:32:06;;;;;;;;;4.00;2.33;;;;;17.19;100.00;101386.91;5011227;28;46073;-77
2022/10/25 07:34:32;;;;;;;;;2.00;2.00;;;;;17.16;100.00;101377.16;5012132;28;45499;-77
2022/10/25 07:36:57;;;;;;;;;2.00;2.00;;;;;17.15;100.00;101380.72;5015600;28;45585;-76
2022/10/25 07:39:22;;;;;;;;;2.00;0.67;;;;;17.20;100.00;101386.00;5015014;28;50909;-76
2022/10/25 07:41:48;;;;;;;;;3.33;2.00;;;;;17.23;100.00;101388.66;5010202;28;50637;-77
2022/10/25 07:44:14;;;;;;;;;3.00;3.00;;;;;17.23;100.00;101391.34;4997937;28;45622;-77
2022/10/25 07:46:39;;;;;;;;;3.00;2.00;;;;;17.24;100.00;101391.31;5013637;28;60650;-76
2022/10/25 07:49:04;;;;;;;;;1.67;1.67;;;;;17.29;100.00;101394.84;5015491;28;60802;-77
2022/10/25 07:51:30;;;;;;;;;5.00;1.33;;;;;17.32;100.00;101390.38;5016313;28;56099;-77
2022/10/25 07:53:55;;;;;;;;;1.00;1.00;;;;;17.35;100.00;101393.91;5015786;28;58108;-77
2022/10/25 07:56:20;;;;;;;;;1.00;1.00;;;;;17.35;100.00;101393.00;5020547;28;54559;-76
2022/10/25 07:58:46;;;;;;;;;4.33;2.00;;;;;17.41;100.00;101391.16;5035793;28;45685;-77
2022/10/25 08:01:13;;;;;;;;;4.33;1.67;;;;;17.47;100.00;101400.91;5036777;28;48138;-76
2022/10/25 08:03:39;;;;;;;;;2.00;1.00;;;;;17.50;100.00;101407.13;5033478;28;45776;-76
2022/10/25 08:06:04;;;;;;;;;2.67;2.00;;;;;17.55;100.00;101404.41;5033148;28;45402;-77
2022/10/25 08:08:30;;;;;;;;;3.33;2.00;;;;;17.59;100.00;101399.94;5036148;28;45231;-76
2022/10/25 08:10:56;;;;;;;;;5.33;2.00;;;;;17.57;100.00;101391.94;5033830;28;62153;-78
2022/10/25 08:13:21;;;;;;;;;2.00;2.00;;;;;17.61;100.00;101400.81;5035672;28;45521;-77
2022/10/25 08:15:54;;;;;;;;;3.00;1.00;;;;;17.57;100.00;101394.59;5032242;28;49366;-78
2022/10/25 08:18:19;;;;;;;;;1.33;1.33;;;;;17.53;100.00;101392.88;5051325;28;45474;-79
2022/10/25 08:20:45;;;;;;;;;3.00;2.00;;;;;17.46;100.00;101383.13;5029475;28;45723;-79
2022/10/25 08:23:11;;;;;;;;;1.00;1.00;;;;;17.42;100.00;101392.09;5034498;28;45527;-78
2022/10/25 08:25:36;;;;;;;;;1.00;1.00;;;;;17.40;100.00;101383.19;5014308;28;45520;-78
2022/10/25 08:28:02;;;;;;;;;5.67;2.67;;;;;17.38;100.00;101376.97;5050550;28;46665;-76
2022/10/25 08:30:27;;;;;;;;;1.67;1.00;;;;;17.41;100.00;101376.94;5034377;28;45454;-79
2022/10/25 08:32:52;;;;;;;;;3.33;2.33;;;;;17.46;100.00;101380.47;5029754;28;57242;-80
2022/10/25 08:35:18;;;;;;;;;2.67;2.00;;;;;17.54;100.00;101384.84;5032849;28;56546;-80
2022/10/25 08:37:44;;;;;;;;;1.00;1.00;;;;;17.54;100.00;101378.63;5044235;28;45483;-80
2022/10/25 08:40:19;;;;;;;;;2.00;2.00;;;;;17.52;100.00;101378.66;5031614;28;45849;-81
2022/10/25 08:43:26;;;;;;;;;2.00;1.00;;;;;17.48;100.00;101379.56;5032954;28;46194;-79
2022/10/25 08:45:56;;;;;;;;;2.33;2.00;;;;;17.40;100.00;101373.38;5023417;28;45301;-80
2022/10/25 08:48:33;;;;;;;;;3.00;0.00;;;;;17.42;100.00;101370.72;5017379;28;45577;-81
2022/10/25 08:51:18;;;;;;;;;2.00;2.00;;;;;17.38;100.00;101380.53;5033451;28;45681;-78
2022/10/25 08:53:47;;;;;;;;;3.67;2.00;;;;;17.33;100.00;101370.81;5030782;28;45581;-78
2022/10/25 08:56:16;;;;;;;;;2.00;2.00;;;;;17.29;100.00;101376.16;5031657;28;45490;-75
2022/10/25 08:58:57;;;;;;;;;1.00;1.00;;;;;17.28;100.00;101377.06;5034074;28;45534;-77
2022/10/25 09:01:37;;;;;;;;;3.67;1.00;;;;;17.20;100.00;101364.66;5032110;28;46853;-77
2022/10/25 09:04:03;;;;;;;;;1.00;1.00;;;;;17.24;100.00;101374.41;5029735;28;45494;-77
2022/10/25 09:06:45;;;;;;;;;1.00;1.00;;;;;17.27;100.00;101385.97;5033112;28;45473;-77
2022/10/25 09:09:25;;;;;;;;;1.33;1.33;;;;;17.32;100.00;101379.72;5030543;28;45600;-77
2022/10/25 09:12:05;;;;;;;;;1.00;1.00;;;;;17.34;100.00;101373.44;5032647;28;45910;-77
2022/10/25 09:14:30;;;;;;;;;7.33;1.00;;;;;17.44;100.00;101383.16;5026745;28;46545;-77
2022/10/25 09:17:03;;;;;;;;;1.00;1.00;;;;;17.54;100.00;101383.97;5028636;28;45494;-77
2022/10/25 09:19:34;;;;;;;;;2.33;2.33;;;;;17.67;100.00;101382.06;5015157;28;45587;-78
2022/10/25 09:22:03;;;;;;;;;5.00;1.00;;;;;17.71;100.00;101379.34;5016450;28;48433;-77
2022/10/25 09:24:35;;;;;;;;;1.00;1.00;;;;;17.74;100.00;101382.03;5030208;28;45625;-77
2022/10/25 09:27:03;;;;;;;;;2.33;1.00;;;;;17.75;100.00;101377.56;5028667;28;45584;-77
2022/10/25 09:29:38;;;;;;;;;2.00;0.00;;;;;17.70;100.00;101369.56;5028523;28;45476;-77
2022/10/25 09:32:13;;;;;;;;;0.00;0.00;;;;;17.70;100.00;101376.69;5041748;28;47372;-77
2022/10/25 09:34:39;;;;;;;;;0.33;0.33;;;;;17.66;100.00;101366.94;5014620;28;45965;-76
2022/10/25 09:37:35;;;;;;;;;1.33;0.00;;;;;17.69;100.00;101378.47;5035157;28;45309;-77
2022/10/25 09:40:05;;;;;;;;;3.00;0.00;;;;;17.67;100.00;101368.69;5028455;28;45540;-77
2022/10/25 09:42:41;;;;;;;;;0.00;0.00;;;;;17.65;100.00;101363.38;5033019;28;45772;-77
2022/10/25 09:45:30;;;;;;;;;0.00;0.00;;;;;17.68;100.00;101366.00;5034081;28;45492;-78
2022/10/25 09:48:01;;;;;;;;;1.00;1.00;;;;;17.73;100.00;101366.88;5026141;28;45463;-76
2022/10/25 09:50:29;;;;;;;;;0.00;0.00;;;;;17.75;100.00;101358.88;5035451;28;45588;-76
2022/10/25 09:53:04;;;;;;;;;0.67;0.00;;;;;17.76;100.00;101364.19;5028989;28;48181;-77
2022/10/25 09:55:38;;;;;;;;;0.00;0.00;;;;;17.76;100.00;101361.53;5032572;28;46100;-77
2022/10/25 09:58:04;;;;;;;;;0.00;0.00;;;;;17.77;100.00;101360.63;5031177;28;45531;-76
2022/10/25 10:00:29;;;;;;;;;0.00;0.00;;;;;17.80;100.00;101355.25;5031298;28;45557;-76
2022/10/25 10:02:55;;;;;;;;;0.00;0.00;;;;;17.85;100.00;101359.66;5032602;28;46872;-76
2022/10/25 10:05:21;;;;;;;;;0.00;0.00;;;;;17.90;100.00;101368.53;5033967;28;45583;-80
2022/10/25 10:07:48;;;;;;;;;2.67;0.00;;;;;17.92;100.00;101356.91;5015389;28;45389;-78
2022/10/25 10:10:17;;;;;;;;;2.00;1.00;;;;;17.96;100.00;101355.09;5028284;28;45708;-76
2022/10/25 10:12:57;;;;;;;;;0.67;0.67;;;;;18.00;100.00;101355.06;5021616;28;48588;-77
2022/10/25 10:15:26;;;;;;;;;2.00;1.00;;;;;18.03;100.00;101346.97;5028813;28;45560;-77
2022/10/25 10:18:39;;;;;;;;;2.00;0.67;;;;;18.09;100.00;101359.38;5031915;28;45525;-76
2022/10/25 10:21:11;;;;;;;;;0.00;0.00;;;;;18.14;100.00;101354.88;5026214;28;45334;-76
2022/10/25 10:23:42;;;;;;;;;4.00;0.00;;;;;18.18;100.00;101353.94;5034724;28;47755;-77
2022/10/25 10:26:18;;;;;;;;;2.00;0.00;;;;;18.22;100.00;101347.66;5028171;28;45450;-76
2022/10/25 10:28:46;;;;;;;;;0.33;0.00;;;;;18.28;100.00;101352.94;5034569;28;45559;-77
2022/10/25 10:31:11;;;;;;;;;1.00;0.00;;;;;18.34;100.00;101354.63;5036411;28;45328;-76
2022/10/25 10:33:37;;;;;;;;;1.00;0.00;;;;;18.37;100.00;101345.66;5036049;28;46869;-77
2022/10/25 10:36:23;;;;;;;;;3.33;0.67;;;;;18.46;100.00;101348.25;5035597;28;45387;-76
2022/10/25 10:38:48;;;;;;;;;2.00;0.00;;;;;18.50;100.00;101340.16;5037762;28;45355;-76
2022/10/25 10:41:22;;;;;;;;;0.00;0.00;;;;;18.55;100.00;101337.44;5035691;28;45584;-77
2022/10/25 10:43:48;;;;;;;;;1.33;0.33;;;;;18.60;100.00;101343.59;5029349;28;45845;-77
2022/10/25 10:46:15;;;;;;;;;2.00;0.00;;;;;18.64;100.00;101337.28;5034630;28;45526;-78
2022/10/25 10:48:43;;;;;;;;;5.67;0.00;;;;;18.69;100.00;101335.44;5028062;28;45361;-76
2022/10/25 10:51:11;;;;;;;;;0.67;0.67;;;;;18.73;100.00;101329.16;5035142;28;45514;-76
2022/10/25 10:53:36;;;;;;;;;1.00;0.00;;;;;18.76;100.00;101323.78;5036377;28;45931;-76
2022/10/25 10:56:03;;;;;;;;;0.33;0.00;;;;;18.81;100.00;101324.59;5034926;28;45347;-77
2022/10/25 10:58:34;;;;;;;;;0.00;0.00;;;;;18.87;100.00;101323.63;5024182;28;45353;-77
2022/10/25 11:01:04;;;;;;;;;0.00;0.00;;;;;18.92;100.00;101315.53;5033962;28;45489;-79
2022/10/25 11:03:42;;;;;;;;;0.67;0.67;;;;;18.97;100.00;101316.34;5012165;28;46765;-76
2022/10/25 11:06:16;;;;;;;;;2.33;0.33;;;;;19.02;100.00;101314.47;5017580;28;45447;-76
2022/10/25 11:08:43;;;;;;;;;1.00;0.33;;;;;19.05;100.00;101306.38;5020003;28;45534;-76
2022/10/25 11:11:18;;;;;;;;;1.00;1.00;;;;;19.09;100.00;101297.38;5020790;28;45503;-76
2022/10/25 11:13:55;;;;;;;;;1.67;1.67;;;;;19.13;100.00;101301.78;5027197;28;45840;-76
2022/10/25 11:16:40;;;;;;;;;0.67;0.67;;;;;19.16;100.00;101295.47;5017688;28;45432;-76
2022/10/25 11:19:26;;;;;;;;;2.00;1.67;;;;;19.21;100.00;101293.59;5021330;28;45438;-76
2022/10/25 11:22:04;;;;;;;;;1.00;0.00;;;;;19.24;100.00;101293.56;5028475;28;45435;-78
2022/10/25 11:24:58;;;;;;;;;0.00;0.00;;;;;19.26;100.00;101287.25;5017120;28;46789;-80
2022/10/25 11:28:07;;;;;;;;;0.00;0.00;;;;;19.27;100.00;101282.78;5021975;28;45283;-78